Time;durP1;ratioP1;P1;durP2;ratioP2;P2;SDS_P1;SDS_P2;PMS_P1;PMS_P2;Temp;Humidity;BMP_temperature;BMP_pressure;BME280_temperature;BME280_humidity;BME280_pressure;Samples;Min_cycle;Max_cycle;Signal;HPM_P1;HPM_P2
2022/05/29 00:01:48;;;;;;;2.17;0.80;;;10.90;99.90;;;;;;4982699;28;20137;-82
2022/05/29 00:04:14;;;;;;;2.17;0.93;;;11.00;99.90;;;;;;4986965;28;20023;-80
2022/05/29 00:06:44;;;;;;;1.95;0.85;;;11.00;99.90;;;;;;4990459;28;20022;-80
2022/05/29 00:09:14;;;;;;;3.08;1.15;;;11.00;99.90;;;;;;5012862;28;20018;-81
2022/05/29 00:11:40;;;;;;;1.17;0.55;;;10.80;99.90;;;;;;5014347;28;20034;-80
2022/05/29 00:14:06;;;;;;;1.88;0.70;;;10.80;99.90;;;;;;4997140;28;20019;-81
2022/05/29 00:16:32;;;;;;;2.60;1.10;;;10.70;99.90;;;;;;4995852;28;20018;-81
2022/05/29 00:18:58;;;;;;;2.13;1.52;;;10.60;99.90;;;;;;4991439;28;20039;-83
2022/05/29 00:21:24;;;;;;;3.35;0.90;;;10.60;99.90;;;;;;4995909;28;20050;-80
2022/05/29 00:23:49;;;;;;;1.52;0.90;;;10.70;99.90;;;;;;4994710;28;20011;-79
2022/05/29 00:26:19;;;;;;;1.40;0.85;;;10.70;99.90;;;;;;4996954;28;20029;-78
2022/05/29 00:28:46;;;;;;;4.45;1.58;;;10.60;99.90;;;;;;5013482;28;20091;-81
2022/05/29 00:31:13;;;;;;;2.58;0.70;;;10.60;99.90;;;;;;5011744;28;20037;-79
2022/05/29 00:33:40;;;;;;;3.63;1.02;;;10.60;99.90;;;;;;4993910;28;20011;-83
2022/05/29 00:36:12;;;;;;;2.13;1.23;;;10.50;99.90;;;;;;5010778;28;20038;-81
2022/05/29 00:38:40;;;;;;;1.25;0.60;;;10.50;99.90;;;;;;5008213;28;20029;-80
2022/05/29 00:41:29;;;;;;;5.70;0.80;;;10.50;99.90;;;;;;5012845;28;20033;-81
2022/05/29 00:44:20;;;;;;;1.60;0.70;;;10.40;99.90;;;;;;4991037;28;20030;-80
2022/05/29 00:46:53;;;;;;;2.13;0.80;;;10.40;99.90;;;;;;5004034;28;20035;-82
2022/05/29 00:49:28;;;;;;;4.32;0.80;;;10.40;99.90;;;;;;5008241;28;20011;-82
2022/05/29 00:52:00;;;;;;;0.60;0.60;;;10.30;99.90;;;;;;4991967;28;20038;-81
2022/05/29 00:54:26;;;;;;;4.05;0.80;;;10.30;99.90;;;;;;4993704;28;20034;-80
2022/05/29 00:56:53;;;;;;;2.05;1.42;;;10.20;99.90;;;;;;4980440;28;20031;-84
2022/05/29 00:59:25;;;;;;;1.65;1.10;;;10.20;99.90;;;;;;4987303;28;20047;-80
2022/05/29 01:01:52;;;;;;;2.95;1.85;;;10.10;99.90;;;;;;4997145;28;20051;-80
2022/05/29 01:04:18;;;;;;;4.40;1.60;;;10.00;99.90;;;;;;5011050;28;20031;-80
2022/05/29 01:06:44;;;;;;;3.10;1.35;;;9.90;99.90;;;;;;4997202;28;20071;-79
2022/05/29 01:09:11;;;;;;;2.42;0.93;;;9.80;99.90;;;;;;5011806;28;20039;-81
2022/05/29 01:11:42;;;;;;;1.50;0.70;;;9.80;99.90;;;;;;4987174;28;20031;-81
2022/05/29 01:14:11;;;;;;;5.05;1.02;;;9.70;99.90;;;;;;4992343;28;20048;-80
2022/05/29 01:17:02;;;;;;;1.42;1.27;;;9.70;99.90;;;;;;5011145;28;20078;-81
2022/05/29 01:19:53;;;;;;;3.85;0.80;;;9.60;99.90;;;;;;4997891;28;20075;-80
2022/05/29 01:22:45;;;;;;;5.13;1.35;;;9.60;99.90;;;;;;5012238;28;20036;-82
2022/05/29 01:25:49;;;;;;;3.60;0.90;;;9.40;99.90;;;;;;5016719;28;20006;-80
2022/05/29 01:28:44;;;;;;;2.40;0.85;;;9.40;99.90;;;;;;5014446;28;20066;-77
2022/05/29 01:31:31;;;;;;;3.33;0.88;;;9.20;99.90;;;;;;4996790;28;20017;-84
2022/05/29 01:34:11;;;;;;;6.20;0.90;;;9.20;99.90;;;;;;5014327;28;20041;-80
2022/05/29 01:37:03;;;;;;;1.00;0.80;;;9.00;99.90;;;;;;5011906;28;20081;-79
2022/05/29 01:39:54;;;;;;;1.33;1.27;;;9.00;99.90;;;;;;5011454;28;20050;-81
2022/05/29 01:42:22;;;;;;;3.58;1.40;;;8.90;99.90;;;;;;5006752;28;20035;-83
2022/05/29 01:45:04;;;;;;;3.00;1.27;;;8.90;99.90;;;;;;4994632;28;20030;-80
2022/05/29 01:47:44;;;;;;;1.00;0.90;;;8.90;99.90;;;;;;5012660;28;20013;-84
2022/05/29 01:50:26;;;;;;;3.05;1.02;;;8.80;99.90;;;;;;4992280;28;20065;-85
2022/05/29 01:53:20;;;;;;;0.90;0.90;;;8.80;99.90;;;;;;5001539;28;20035;-78
2022/05/29 01:55:50;;;;;;;1.42;0.93;;;8.60;99.90;;;;;;4992817;28;20105;-82
2022/05/29 01:58:37;;;;;;;8.18;0.90;;;8.40;99.90;;;;;;4998629;28;20022;-80
2022/05/29 02:01:06;;;;;;;2.30;1.58;;;8.20;99.90;;;;;;4998006;28;20035;-82
2022/05/29 02:03:36;;;;;;;1.00;0.90;;;8.20;99.90;;;;;;4982339;28;20400;-82
2022/05/29 02:06:14;;;;;;;2.38;0.70;;;8.10;99.90;;;;;;4980519;28;20038;-80
2022/05/29 02:08:52;;;;;;;0.97;0.97;;;8.10;99.90;;;;;;5003532;28;20282;-81
2022/05/29 02:11:26;;;;;;;2.72;1.10;;;8.00;99.90;;;;;;4981091;28;20274;-79
2022/05/29 02:14:14;;;;;;;3.13;1.80;;;7.90;99.90;;;;;;5010806;28;20086;-81
2022/05/29 02:16:46;;;;;;;3.22;1.30;;;7.80;99.90;;;;;;4997515;28;20027;-81
2022/05/29 02:19:32;;;;;;;5.72;1.70;;;7.80;99.90;;;;;;4993491;28;20133;-82
2022/05/29 02:22:12;;;;;;;1.75;1.40;;;7.80;99.90;;;;;;4984876;28;20034;-81
2022/05/29 02:24:54;;;;;;;6.25;1.15;;;7.70;99.90;;;;;;5007390;28;20050;-79
2022/05/29 02:27:45;;;;;;;4.35;1.50;;;7.60;99.90;;;;;;4992533;28;20010;-82
2022/05/29 02:30:12;;;;;;;1.27;1.20;;;7.50;99.90;;;;;;5006871;28;20126;-79
2022/05/29 02:33:14;;;;;;;3.65;1.17;;;7.50;99.90;;;;;;5003038;28;20035;-79
2022/05/29 02:36:19;;;;;;;3.92;1.13;;;7.30;99.90;;;;;;4989242;28;20070;-83
2022/05/29 02:39:00;;;;;;;4.38;1.40;;;7.30;99.90;;;;;;4998373;28;20011;-80
2022/05/29 02:42:10;;;;;;;5.78;1.27;;;7.40;99.90;;;;;;4992280;28;20046;-81
2022/05/29 02:45:02;;;;;;;2.42;1.40;;;7.30;99.90;;;;;;4939457;28;20117;-84
2022/05/29 02:47:55;;;;;;;4.65;1.40;;;7.20;99.90;;;;;;4975690;28;20114;-79
2022/05/29 02:50:24;;;;;;;2.08;1.27;;;7.40;99.90;;;;;;4997841;28;20123;-84
2022/05/29 02:52:52;;;;;;;1.80;1.70;;;7.40;99.90;;;;;;4984993;28;20007;-84
2022/05/29 02:55:19;;;;;;;4.55;1.70;;;7.50;99.90;;;;;;5000525;28;20368;-82
2022/05/29 02:57:45;;;;;;;3.42;1.48;;;7.60;99.90;;;;;;4994020;28;20023;-77
2022/05/29 03:00:12;;;;;;;4.40;1.45;;;7.70;99.90;;;;;;4988021;28;20043;-82
2022/05/29 03:03:05;;;;;;;5.45;2.10;;;7.80;99.90;;;;;;4985853;28;20043;-81
2022/05/29 03:05:49;;;;;;;1.63;1.30;;;7.80;99.90;;;;;;4975147;28;20109;-82
2022/05/29 03:08:35;;;;;;;2.92;1.67;;;8.10;99.90;;;;;;4982580;28;20081;-82
2022/05/29 03:11:20;;;;;;;3.80;1.10;;;8.20;99.90;;;;;;4976071;28;20118;-82
2022/05/29 03:14:30;;;;;;;5.15;1.50;;;8.40;99.90;;;;;;4978309;28;20029;-82
2022/05/29 03:16:58;;;;;;;;;;;8.40;99.90;;;;;;4971726;28;20045;-84
2022/05/29 03:19:31;;;;;;;1.30;1.10;;;8.40;99.90;;;;;;4991589;28;19917;-81
2022/05/29 03:22:31;;;;;;;1.60;1.17;;;8.40;99.90;;;;;;4975726;28;20078;-79
2022/05/29 03:25:04;;;;;;;3.63;1.05;;;8.40;99.90;;;;;;5003963;28;20026;-79
2022/05/29 03:27:48;;;;;;;1.27;1.08;;;8.40;99.90;;;;;;4987578;28;20541;-81
2022/05/29 03:30:28;;;;;;;3.17;1.30;;;8.30;99.90;;;;;;4973568;28;20105;-82
2022/05/29 03:32:58;;;;;;;2.63;1.73;;;8.30;99.90;;;;;;4989233;28;20037;-81
2022/05/29 03:35:32;;;;;;;5.63;1.25;;;8.40;99.90;;;;;;4989609;28;20058;-80
2022/05/29 03:38:00;;;;;;;2.00;1.40;;;8.40;99.90;;;;;;4995379;28;20057;-79
2022/05/29 03:40:28;;;;;;;4.85;1.20;;;8.30;99.90;;;;;;4990052;28;20033;-80
2022/05/29 03:42:54;;;;;;;2.92;1.10;;;8.30;99.90;;;;;;4986628;28;20022;-79
2022/05/29 03:45:20;;;;;;;1.05;1.00;;;8.30;99.90;;;;;;4987305;28;20053;-79
2022/05/29 03:47:46;;;;;;;1.60;1.50;;;8.20;99.90;;;;;;4983408;28;20037;-80
2022/05/29 03:52:48;;;;;;;3.95;1.67;;;;;;;;;;5048157;23;19922;-80
2022/05/29 03:55:16;;;;;;;1.27;1.17;;;8.20;99.90;;;;;;5001145;28;20026;-80
2022/05/29 03:57:42;;;;;;;2.45;1.13;;;8.20;99.90;;;;;;5029392;28;20121;-80
2022/05/29 04:00:10;;;;;;;4.65;1.30;;;8.20;99.90;;;;;;5008702;28;20053;-83
2022/05/29 04:02:36;;;;;;;3.47;2.03;;;8.20;99.90;;;;;;5006136;28;20019;-84
2022/05/29 04:05:02;;;;;;;1.23;1.08;;;8.10;99.90;;;;;;4999225;28;20531;-79
2022/05/29 04:12:58;;;;;;;2.88;1.23;;;8.10;99.90;;;;;;5011733;28;20037;-82
2022/05/29 04:15:24;;;;;;;1.30;1.10;;;8.10;99.90;;;;;;5024571;28;20022;-79
2022/05/29 04:17:50;;;;;;;3.78;1.15;;;8.10;99.90;;;;;;5008644;28;20022;-80
2022/05/29 04:20:17;;;;;;;1.75;1.40;;;8.20;99.90;;;;;;5041411;28;20042;-84
2022/05/29 04:22:42;;;;;;;2.80;1.25;;;8.20;99.90;;;;;;5047058;28;20034;-80
2022/05/29 04:25:09;;;;;;;1.77;1.42;;;8.20;99.90;;;;;;5033434;28;20066;-79
2022/05/29 04:27:34;;;;;;;2.17;1.10;;;8.30;99.90;;;;;;5020702;28;20052;-81
2022/05/29 04:30:00;;;;;;;4.38;1.20;;;8.30;99.90;;;;;;5041697;28;20487;-81
2022/05/29 04:35:10;;;;;;;3.33;1.67;;;8.30;99.90;;;;;;5028718;28;20048;-80
2022/05/29 04:37:36;;;;;;;11.05;1.48;;;8.30;99.90;;;;;;5043692;28;20454;-81
2022/05/29 04:40:02;;;;;;;4.65;1.75;;;8.40;99.90;;;;;;5040123;28;20119;-83
2022/05/29 04:42:28;;;;;;;1.33;1.23;;;8.60;99.90;;;;;;5049018;28;20038;-82
2022/05/29 04:44:54;;;;;;;2.20;1.45;;;8.80;99.90;;;;;;5030113;28;20090;-80
2022/05/29 04:47:20;;;;;;;2.85;1.48;;;9.00;99.90;;;;;;5036793;28;20493;-83
2022/05/29 04:49:45;;;;;;;2.85;1.17;;;9.00;99.90;;;;;;5019340;28;20017;-83
2022/05/29 04:52:11;;;;;;;6.43;1.38;;;9.10;99.90;;;;;;5035685;28;20236;-82
2022/05/29 04:54:38;;;;;;;1.30;0.85;;;9.20;99.90;;;;;;5027113;28;20030;-80
2022/05/29 04:57:06;;;;;;;5.43;1.58;;;9.40;99.90;;;;;;5032943;28;20010;-80
2022/05/29 04:59:32;;;;;;;2.50;0.98;;;9.50;99.90;;;;;;5026721;28;20037;-84
2022/05/29 05:01:59;;;;;;;2.20;1.10;;;9.50;99.90;;;;;;5026441;28;20030;-80
2022/05/29 05:04:26;;;;;;;2.83;1.40;;;9.50;99.90;;;;;;5049732;28;20074;-83
2022/05/29 05:06:55;;;;;;;2.40;1.42;;;9.40;99.90;;;;;;5026616;28;20211;-80
2022/05/29 05:09:22;;;;;;;1.98;1.45;;;9.50;99.90;;;;;;5015979;28;20006;-81
2022/05/29 05:14:25;;;;;;;1.35;1.02;;;9.60;99.90;;;;;;5061555;23;20047;-80
2022/05/29 05:16:53;;;;;;;4.72;1.10;;;9.60;99.90;;;;;;4957030;29;20054;-81
2022/05/29 05:19:19;;;;;;;2.50;1.30;;;9.60;99.90;;;;;;4959730;28;20283;-82
2022/05/29 05:21:45;;;;;;;5.05;1.30;;;9.60;99.90;;;;;;4956250;29;20019;-82
2022/05/29 05:24:11;;;;;;;3.58;1.60;;;9.70;99.90;;;;;;4963311;29;20034;-83
2022/05/29 05:26:39;;;;;;;2.83;1.30;;;;;;;;;;4975211;28;20051;-82
2022/05/29 05:29:05;;;;;;;4.38;1.23;;;9.90;99.90;;;;;;4938757;29;20028;-78
2022/05/29 05:31:37;;;;;;;3.00;1.08;;;10.00;99.90;;;;;;4938429;29;20126;-78
2022/05/29 05:34:03;;;;;;;3.78;1.45;;;10.00;99.90;;;;;;4955205;29;20031;-78
2022/05/29 05:36:29;;;;;;;3.78;2.00;;;10.10;99.90;;;;;;4954051;29;20090;-78
2022/05/29 05:38:56;;;;;;;6.95;1.77;;;10.10;99.90;;;;;;4955781;29;20115;-78
2022/05/29 05:41:22;;;;;;;2.90;1.42;;;10.20;99.90;;;;;;4953529;28;20521;-78
2022/05/29 05:43:48;;;;;;;1.88;1.48;;;10.20;99.90;;;;;;4954080;29;20023;-78
2022/05/29 05:46:17;;;;;;;4.10;1.40;;;10.20;99.90;;;;;;4954842;28;20078;-78
2022/05/29 05:48:43;;;;;;;;;;;10.30;99.90;;;;;;4953861;28;20444;-79
2022/05/29 05:51:11;;;;;;;4.60;1.60;;;10.20;99.90;;;;;;4954356;28;19911;-78
2022/05/29 05:53:38;;;;;;;5.10;2.00;;;10.30;99.90;;;;;;4938472;29;20032;-78
2022/05/29 05:56:13;;;;;;;2.58;1.15;;;10.20;99.90;;;;;;4954923;29;20031;-78
2022/05/29 05:58:40;;;;;;;6.05;2.03;;;10.30;99.90;;;;;;4954700;29;20031;-78
2022/05/29 06:01:10;;;;;;;4.72;1.50;;;10.50;99.90;;;;;;4953231;29;20070;-78
2022/05/29 06:03:36;;;;;;;4.53;1.63;;;10.50;99.90;;;;;;4953438;29;20102;-78
2022/05/29 06:06:02;;;;;;;2.83;1.98;;;10.50;99.90;;;;;;4953547;28;20096;-78
2022/05/29 06:08:28;;;;;;;3.08;1.23;;;10.40;99.90;;;;;;4953575;29;20488;-78
2022/05/29 06:10:54;;;;;;;4.13;1.40;;;10.50;99.90;;;;;;4953942;29;20412;-79
2022/05/29 06:13:20;;;;;;;1.20;1.00;;;;;;;;;;4953628;29;20070;-78
2022/05/29 06:15:46;;;;;;;1.27;0.90;;;10.80;99.90;;;;;;4952204;29;20131;-78
2022/05/29 06:18:16;;;;;;;3.42;1.20;;;10.80;99.90;;;;;;4951723;29;20023;-79
2022/05/29 06:20:42;;;;;;;3.17;1.30;;;10.90;99.90;;;;;;4943187;29;20220;-79
2022/05/29 06:23:09;;;;;;;4.82;1.20;;;10.90;99.90;;;;;;4946360;29;20086;-79
2022/05/29 06:25:38;;;;;;;1.52;1.00;;;10.90;99.90;;;;;;4950787;29;20436;-79
2022/05/29 06:28:04;;;;;;;3.05;2.03;;;10.90;99.90;;;;;;4933610;29;20511;-79
2022/05/29 06:30:30;;;;;;;3.17;1.10;;;11.00;99.90;;;;;;4915261;29;20457;-79
2022/05/29 06:32:56;;;;;;;3.20;1.20;;;10.90;99.90;;;;;;4933590;29;20107;-79
2022/05/29 06:35:22;;;;;;;3.58;1.25;;;11.00;99.90;;;;;;4939766;29;20114;-78
2022/05/29 06:37:47;;;;;;;2.38;1.20;;;11.00;99.90;;;;;;4941805;29;20107;-78
2022/05/29 06:40:14;;;;;;;2.28;0.90;;;12.20;99.90;;;;;;4927216;29;20065;-79
2022/05/29 06:42:40;;;;;;;3.97;1.15;;;12.60;99.90;;;;;;4945320;29;20046;-79
2022/05/29 06:45:07;;;;;;;4.70;1.67;;;13.10;99.90;;;;;;4927810;29;20036;-78
2022/05/29 06:47:33;;;;;;;3.08;0.82;;;13.80;99.90;;;;;;4945162;29;20668;-78
2022/05/29 06:50:00;;;;;;;0.80;0.80;;;14.10;99.50;;;;;;4943227;29;20339;-80
2022/05/29 06:52:32;;;;;;;2.08;0.90;;;13.90;99.90;;;;;;4943842;29;20027;-81
2022/05/29 06:55:38;;;;;;;4.28;1.00;;;14.90;92.90;;;;;;4944018;29;20028;-80
2022/05/29 06:58:04;;;;;;;4.43;2.38;;;14.00;95.40;;;;;;4939361;29;20024;-79
2022/05/29 07:08:45;;;;;;;2.88;1.83;;;14.00;99.90;;;;;;4937519;29;20031;-79
2022/05/29 07:11:18;;;;;;;11.52;2.50;;;14.20;87.10;;;;;;4937018;29;20451;-80
2022/05/29 07:13:44;;;;;;;2.25;0.93;;;14.10;98.10;;;;;;4921551;29;20055;-80
2022/05/29 07:16:10;;;;;;;3.83;1.65;;;14.50;99.50;;;;;;4941946;29;20376;-78
2022/05/29 07:18:36;;;;;;;3.85;1.30;;;;;;;;;;4929148;29;20083;-79
2022/05/29 07:21:04;;;;;;;3.50;1.10;;;15.20;80.70;;;;;;4926031;29;20028;-79
2022/05/29 07:23:33;;;;;;;2.67;0.98;;;15.30;75.10;;;;;;4952937;29;20119;-79
2022/05/29 07:26:00;;;;;;;2.42;1.00;;;15.20;73.90;;;;;;4928686;29;20035;-80
2022/05/29 07:28:27;;;;;;;4.80;1.10;;;14.00;94.00;;;;;;4937274;29;20043;-78
2022/05/29 07:30:54;;;;;;;2.13;1.38;;;14.00;96.40;;;;;;4925440;29;20122;-80
2022/05/29 07:33:21;;;;;;;3.20;1.42;;;15.30;99.90;;;;;;4943836;29;20050;-78
2022/05/29 07:35:46;;;;;;;3.47;1.60;;;13.80;99.40;;;;;;4942715;29;20028;-78
2022/05/29 07:38:13;;;;;;;4.15;1.27;;;14.30;97.90;;;;;;4926790;29;20027;-78
2022/05/29 07:40:39;;;;;;;3.15;1.42;;;14.60;92.50;;;;;;4934615;29;20039;-79
2022/05/29 07:43:21;;;;;;;1.88;0.90;;;14.70;92.30;;;;;;4932459;29;20285;-79
2022/05/29 07:45:52;;;;;;;1.15;0.90;;;14.60;90.60;;;;;;4933505;29;20034;-79
2022/05/29 07:48:21;;;;;;;2.58;1.00;;;14.60;90.50;;;;;;4915545;29;20114;-79
2022/05/29 07:50:47;;;;;;;4.07;1.15;;;15.10;88.00;;;;;;4934184;29;20036;-79
2022/05/29 07:53:13;;;;;;;1.10;0.98;;;14.60;94.50;;;;;;4934727;29;20024;-78
2022/05/29 07:55:39;;;;;;;1.58;1.00;;;14.60;81.10;;;;;;4931611;29;20031;-79
2022/05/29 07:58:06;;;;;;;2.63;1.05;;;14.20;94.50;;;;;;4932068;29;20491;-79
2022/05/29 08:00:33;;;;;;;2.22;0.90;;;14.20;97.00;;;;;;4913895;29;20131;-79
2022/05/29 08:02:59;;;;;;;2.88;1.08;;;14.80;90.20;;;;;;4919158;29;20023;-80
2022/05/29 08:05:26;;;;;;;4.97;1.63;;;;;;;;;;4918578;29;20375;-78
2022/05/29 08:07:52;;;;;;;4.60;1.63;;;14.90;95.80;;;;;;4937709;29;20028;-79
2022/05/29 08:10:22;;;;;;;5.65;1.42;;;14.80;86.80;;;;;;4935647;29;20040;-79
2022/05/29 08:12:48;;;;;;;1.42;1.08;;;15.10;97.20;;;;;;4934312;29;20086;-79
2022/05/29 08:15:14;;;;;;;3.00;1.23;;;15.60;78.90;;;;;;4932922;29;20231;-78
2022/05/29 08:17:40;;;;;;;3.15;1.30;;;15.60;79.70;;;;;;4944499;29;20020;-80
2022/05/29 08:20:08;;;;;;;2.67;1.05;;;14.90;77.60;;;;;;4950343;29;20054;-82
2022/05/29 08:22:33;;;;;;;5.22;1.40;;;15.40;80.40;;;;;;4956506;29;20023;-80
2022/05/29 08:30:38;;;;;;;1.85;1.08;;;15.00;79.70;;;;;;4949282;29;20047;-80
2022/05/29 08:33:05;;;;;;;2.17;1.20;;;15.30;86.40;;;;;;4937140;29;20484;-81
2022/05/29 08:35:32;;;;;;;2.75;1.00;;;15.10;94.60;;;;;;4938268;29;20134;-81
2022/05/29 08:37:59;;;;;;;4.38;1.77;;;14.70;94.10;;;;;;4940259;29;20500;-80
2022/05/29 08:40:26;;;;;;;3.35;1.10;;;14.50;92.20;;;;;;4936508;29;20039;-80
2022/05/29 08:42:53;;;;;;;4.35;1.10;;;14.80;88.10;;;;;;4940702;29;20423;-80
2022/05/29 08:45:20;;;;;;;2.38;0.90;;;15.10;81.20;;;;;;4959218;28;20066;-81
2022/05/29 08:47:46;;;;;;;4.50;1.40;;;15.00;74.80;;;;;;4956120;29;20024;-80
2022/05/29 08:50:27;;;;;;;4.10;1.00;;;14.60;71.10;;;;;;4957445;29;20031;-80
2022/05/29 08:52:56;;;;;;;2.08;1.15;;;14.40;87.10;;;;;;4951669;29;20028;-80
2022/05/29 08:55:49;;;;;;;7.10;1.05;;;14.70;88.80;;;;;;4963448;29;20031;-80
2022/05/29 08:58:20;;;;;;;2.67;1.08;;;15.00;82.40;;;;;;4951658;28;20031;-81
2022/05/29 09:01:04;;;;;;;2.78;1.05;;;14.90;86.80;;;;;;4952213;29;20043;-80
2022/05/29 09:03:44;;;;;;;2.50;1.05;;;14.70;91.30;;;;;;4950433;29;20027;-81
2022/05/29 09:06:21;;;;;;;5.25;1.30;;;15.20;76.20;;;;;;4959910;29;20031;-77
2022/05/29 09:08:56;;;;;;;5.45;1.13;;;16.10;73.00;;;;;;4933045;28;20036;-81
2022/05/29 09:11:29;;;;;;;4.10;1.23;;;16.60;68.70;;;;;;4945840;29;20047;-79
2022/05/29 09:14:00;;;;;;;3.92;1.38;;;17.00;66.90;;;;;;4971159;28;20107;-79
2022/05/29 09:16:40;;;;;;;5.03;1.20;;;16.80;82.40;;;;;;4981062;28;20043;-80
2022/05/29 09:19:16;;;;;;;7.47;2.47;;;16.30;66.50;;;;;;4982760;28;20035;-80
2022/05/29 09:21:54;;;;;;;2.90;1.08;;;16.60;67.50;;;;;;4978213;28;20036;-80
2022/05/29 09:24:41;;;;;;;5.20;1.20;;;16.60;68.60;;;;;;4975956;28;20046;-83
2022/05/29 09:27:09;;;;;;;0.82;0.82;;;16.40;73.70;;;;;;4960700;28;20031;-81
2022/05/29 09:29:36;;;;;;;4.53;1.52;;;17.40;67.60;;;;;;4970006;28;20042;-80
2022/05/29 09:32:08;;;;;;;3.15;1.10;;;17.20;62.70;;;;;;4970272;28;20034;-80
2022/05/29 09:34:33;;;;;;;2.90;1.27;;;17.10;63.70;;;;;;4976610;29;20574;-84
2022/05/29 09:37:12;;;;;;;10.60;2.17;;;16.90;64.70;;;;;;4975385;28;20039;-83
2022/05/29 09:39:46;;;;;;;2.60;1.02;;;16.10;71.10;;;;;;4953864;29;20504;-81
2022/05/29 09:42:25;;;;;;;1.75;1.13;;;15.50;74.20;;;;;;4972158;28;20546;-80
2022/05/29 09:45:15;;;;;;;2.78;1.00;;;16.30;79.70;;;;;;4973593;28;20451;-80
2022/05/29 09:50:49;;;;;;;2.65;1.10;;;16.60;62.70;;;;;;4978335;28;20023;-81
2022/05/29 09:53:24;;;;;;;3.50;1.55;;;16.50;62.10;;;;;;4966083;28;20120;-84
2022/05/29 09:55:54;;;;;;;2.70;1.40;;;14.20;63.30;;;;;;4955014;29;20019;-80
2022/05/29 09:58:23;;;;;;;;;;;16.30;66.30;;;;;;4952287;29;20023;-80
2022/05/29 10:01:05;;;;;;;3.42;1.00;;;16.90;64.80;;;;;;4965734;29;19914;-79
2022/05/29 10:03:52;;;;;;;3.30;1.10;;;17.00;64.00;;;;;;4965109;29;20283;-79
2022/05/29 10:06:46;;;;;;;4.20;2.17;;;16.50;62.30;;;;;;4964914;29;20025;-79
2022/05/29 10:09:19;;;;;;;2.83;1.25;;;16.40;62.00;;;;;;4964508;29;20103;-79
2022/05/29 10:11:59;;;;;;;1.20;0.77;;;17.00;62.50;;;;;;4942137;29;20559;-79
2022/05/29 10:14:30;;;;;;;1.13;1.00;;;16.50;61.90;;;;;;4961925;28;20134;-79
2022/05/29 10:16:57;;;;;;;4.13;0.90;;;16.40;63.30;;;;;;4944890;29;20027;-80
2022/05/29 10:19:46;;;;;;;4.40;0.90;;;16.50;62.60;;;;;;4945421;29;20071;-79
2022/05/29 10:22:31;;;;;;;3.10;1.15;;;17.30;59.50;;;;;;4961091;29;20118;-79
2022/05/29 10:24:58;;;;;;;2.60;1.42;;;17.20;62.30;;;;;;4961567;29;20027;-79
2022/05/29 10:27:37;;;;;;;14.43;1.30;;;16.60;61.60;;;;;;4944389;29;20023;-79
2022/05/29 10:30:09;;;;;;;1.20;0.82;;;15.90;63.00;;;;;;4942872;29;20058;-79
2022/05/29 10:32:38;;;;;;;4.72;1.33;;;15.60;66.00;;;;;;4940939;29;20042;-79
2022/05/29 10:35:13;;;;;;;1.30;1.05;;;14.90;69.30;;;;;;4955698;29;20403;-79
2022/05/29 10:37:43;;;;;;;3.15;1.13;;;15.30;66.10;;;;;;4939186;29;20055;-79
2022/05/29 10:40:27;;;;;;;5.22;0.90;;;15.60;66.20;;;;;;4954665;29;20031;-79
2022/05/29 10:42:56;;;;;;;3.55;0.95;;;15.30;65.00;;;;;;4938656;29;20023;-79
2022/05/29 10:45:21;;;;;;;2.30;1.20;;;15.40;65.70;;;;;;4956656;29;20119;-79
2022/05/29 10:48:12;;;;;;;3.00;0.80;;;16.20;65.10;;;;;;4955873;29;20102;-79
2022/05/29 10:51:01;;;;;;;4.05;1.05;;;16.80;62.50;;;;;;4954693;29;20122;-79
2022/05/29 10:53:54;;;;;;;3.03;1.48;;;17.20;61.60;;;;;;4938800;29;20027;-79
2022/05/29 10:56:48;;;;;;;5.03;1.10;;;17.60;59.60;;;;;;4940255;29;20031;-79
2022/05/29 10:59:25;;;;;;;1.63;0.80;;;16.60;60.50;;;;;;4939443;29;20572;-79
2022/05/29 11:05:48;;;;;;;2.83;0.68;;;15.80;62.50;;;;;;4956773;29;20034;-79
2022/05/29 11:08:26;;;;;;;5.10;1.52;;;16.80;59.90;;;;;;4936197;29;20031;-80
2022/05/29 11:11:04;;;;;;;0.93;0.93;;;18.10;60.00;;;;;;4940829;29;20127;-80
2022/05/29 11:13:57;;;;;;;3.17;1.13;;;18.30;56.70;;;;;;4938810;29;20583;-79
2022/05/29 11:16:55;;;;;;;2.22;0.60;;;18.10;56.40;;;;;;4957118;29;20054;-79
2022/05/29 11:19:32;;;;;;;2.35;0.60;;;18.60;55.80;;;;;;4934666;29;20047;-79
2022/05/29 11:22:26;;;;;;;6.25;1.35;;;19.60;57.20;;;;;;4938305;29;20030;-79
2022/05/29 11:25:16;;;;;;;3.53;0.70;;;18.10;54.60;;;;;;4939757;29;20031;-79
2022/05/29 11:28:07;;;;;;;2.28;0.63;;;16.80;58.20;;;;;;4939666;29;20516;-79
2022/05/29 11:30:49;;;;;;;9.88;1.27;;;16.40;57.70;;;;;;4955218;29;20047;-79
2022/05/29 11:33:42;;;;;;;3.13;0.77;;;16.20;59.10;;;;;;4940112;29;20043;-79
2022/05/29 11:36:24;;;;;;;2.50;1.00;;;16.40;61.10;;;;;;4956157;29;20022;-79
2022/05/29 11:39:05;;;;;;;2.90;1.45;;;16.20;59.80;;;;;;4939300;29;20039;-79
2022/05/29 11:41:50;;;;;;;1.13;0.80;;;16.30;59.60;;;;;;4937457;29;20070;-79
2022/05/29 11:44:25;;;;;;;10.20;0.90;;;16.10;58.50;;;;;;4954644;29;20491;-79
2022/05/29 11:52:59;;;;;;;3.75;0.60;;;16.50;60.50;;;;;;4955416;29;20414;-79
2022/05/29 11:55:34;;;;;;;0.98;0.57;;;16.50;58.20;;;;;;4937770;29;20026;-79
2022/05/29 11:58:20;;;;;;;2.30;0.70;;;16.30;59.70;;;;;;4955041;29;20123;-79
2022/05/29 12:01:15;;;;;;;3.63;0.65;;;16.40;57.70;;;;;;4937682;29;20035;-79
2022/05/29 12:04:01;;;;;;;2.35;1.02;;;17.10;58.30;;;;;;4954815;28;20069;-79
2022/05/29 12:06:36;;;;;;;2.13;0.50;;;;;;;;;;4937465;29;20031;-80
2022/05/29 12:09:27;;;;;;;1.20;0.70;;;16.70;57.70;;;;;;4955990;29;20376;-79
2022/05/29 12:11:59;;;;;;;0.82;0.82;;;16.90;56.80;;;;;;4954866;29;20279;-80
2022/05/29 12:14:36;;;;;;;1.10;0.80;;;16.90;55.60;;;;;;4937729;29;20515;-79
2022/05/29 12:17:37;;;;;;;2.17;0.60;;;16.90;57.30;;;;;;4956219;29;20261;-79
2022/05/29 12:20:09;;;;;;;1.88;0.50;;;16.60;55.20;;;;;;4955493;29;20044;-79
2022/05/29 12:22:49;;;;;;;1.42;0.50;;;16.90;54.90;;;;;;4938183;29;20020;-79
2022/05/29 12:25:26;;;;;;;;;;;16.90;56.90;;;;;;4937932;29;20023;-79
2022/05/29 12:27:54;;;;;;;1.80;0.70;;;16.80;56.60;;;;;;4955214;29;19978;-79
2022/05/29 12:30:36;;;;;;;2.85;0.70;;;16.30;56.80;;;;;;4955444;29;20031;-79
2022/05/29 12:33:13;;;;;;;3.08;0.73;;;16.50;56.40;;;;;;4953273;29;20023;-79
2022/05/29 12:36:01;;;;;;;2.70;0.70;;;16.40;57.10;;;;;;4955041;29;20335;-79
2022/05/29 12:38:51;;;;;;;1.85;0.60;;;17.00;55.10;;;;;;4955550;29;20456;-80
2022/05/29 12:41:24;;;;;;;3.28;0.50;;;18.20;54.60;;;;;;4938527;29;20539;-79
2022/05/29 12:44:17;;;;;;;2.58;0.60;;;18.50;53.00;;;;;;4938090;29;20306;-79
2022/05/29 12:47:04;;;;;;;2.75;0.52;;;18.90;51.80;;;;;;4954099;28;20028;-79
2022/05/29 12:50:05;;;;;;;2.20;0.40;;;19.40;52.70;;;;;;4954228;29;20019;-79
2022/05/29 12:52:38;;;;;;;4.68;0.60;;;19.60;51.80;;;;;;4941078;29;20031;-79
2022/05/29 12:55:23;;;;;;;3.63;0.45;;;19.50;52.40;;;;;;4960366;29;20483;-79
2022/05/29 12:57:57;;;;;;;0.60;0.47;;;19.60;50.30;;;;;;4954436;28;20821;-79
2022/05/29 13:00:36;;;;;;;1.20;0.47;;;;;;;;;;4960105;28;20039;-79
2022/05/29 13:03:31;;;;;;;1.58;0.73;;;20.00;49.10;;;;;;4960024;29;20019;-79
2022/05/29 13:06:28;;;;;;;2.83;0.60;;;20.30;51.70;;;;;;4957259;28;20020;-79
2022/05/29 13:08:54;;;;;;;2.72;0.57;;;18.70;50.20;;;;;;4959796;28;20082;-79
2022/05/29 13:11:24;;;;;;;2.05;0.50;;;19.30;53.70;;;;;;4958309;29;20494;-79
2022/05/29 13:13:56;;;;;;;1.65;0.65;;;20.50;50.00;;;;;;4959999;29;20137;-79
2022/05/29 13:16:36;;;;;;;1.92;0.50;;;;;;;;;;4962710;28;20208;-79
2022/05/29 13:19:18;;;;;;;1.50;0.47;;;20.20;47.90;;;;;;4963394;28;20023;-79
2022/05/29 13:22:05;;;;;;;5.30;0.50;;;20.10;48.30;;;;;;4961870;28;20118;-79
2022/05/29 13:24:38;;;;;;;0.80;0.60;;;19.80;51.00;;;;;;4959670;29;20051;-79
2022/05/29 13:27:12;;;;;;;2.60;0.73;;;19.40;49.80;;;;;;4961808;29;20555;-79
2022/05/29 13:29:49;;;;;;;1.20;0.50;;;19.60;50.10;;;;;;4960052;29;20085;-80
2022/05/29 13:32:14;;;;;;;1.88;1.00;;;19.10;50.60;;;;;;4960502;29;20030;-79
2022/05/29 13:34:46;;;;;;;0.50;0.30;;;19.00;51.10;;;;;;4960376;29;20031;-79
2022/05/29 13:37:32;;;;;;;1.45;0.95;;;19.40;52.10;;;;;;4968305;29;20030;-79
2022/05/29 13:40:06;;;;;;;0.80;0.50;;;19.50;49.80;;;;;;4965898;28;20103;-78
2022/05/29 13:42:53;;;;;;;0.52;0.45;;;18.40;52.20;;;;;;4966173;29;20019;-79
2022/05/29 13:45:24;;;;;;;0.45;0.40;;;17.30;52.40;;;;;;4965398;28;20027;-79
2022/05/29 13:48:16;;;;;;;1.58;0.40;;;17.30;53.00;;;;;;4967602;29;20023;-79
2022/05/29 13:51:11;;;;;;;4.28;0.52;;;17.50;52.60;;;;;;4968323;29;20027;-79
2022/05/29 13:53:55;;;;;;;1.15;0.63;;;18.10;52.50;;;;;;4954216;29;20039;-89
2022/05/29 13:56:37;;;;;;;0.50;0.45;;;20.80;52.50;;;;;;4945689;28;20183;-89
2022/05/29 14:04:54;;;;;;;3.45;0.52;;;20.90;48.60;;;;;;4936960;29;20567;-85
2022/05/29 14:07:31;;;;;;;2.58;0.95;;;20.30;49.30;;;;;;4956594;28;20020;-82
2022/05/29 14:10:18;;;;;;;1.83;0.68;;;19.40;49.90;;;;;;4958918;29;20043;-81
2022/05/29 14:12:59;;;;;;;0.80;0.43;;;18.40;51.00;;;;;;4953668;29;20046;-83
2022/05/29 14:15:39;;;;;;;1.35;0.40;;;18.10;52.00;;;;;;4952310;29;20027;-83
2022/05/29 14:18:10;;;;;;;0.50;0.50;;;18.00;52.20;;;;;;4950288;29;20078;-81